Accueil
METAR-TAF:

METAR-TAF

Aéroports :

Pékin, Chine

Aéroport international de Pékin-Capitale

latitude: 39-56N, longitude: 116-17E, altitude: 55 m

Observation

Le bulletin a été fait il y a 16 minutes, à 01:30 UTC
Vent 4 kt de nord/nord-est, variant entre nord/nord-ouest et est/nord-est
Température 3°C
Humidité 44%
Pression 1021 hPa
Visibilité 10 km ou plus
pas de nuages en-dessous de 1500 mètres et pas de cumulonimbus.

METAR: ZBAA 250130Z 03002MPS 340V070 CAVOK 03/M08 Q1021 NOSIG

Heure: 09:46 (01:46 UTC)

Prévision

Le bulletin a été fait il y a 4 heures et 26 minutes, à 21:20 UTC
Prévision valable du 25 à 00 UTC au 25 à 24 UTC
Vent 8 kt de nord-ouest
Visibilité 10 km ou plus
pas de nuages en-dessous de 1500 mètres et pas de cumulonimbus.
Evoluant progressivement
du 25 à 12 UTC au 25 à 13 UTC
Vent 17 kt de nord-ouest avec des rafales jusqu'à 31 kt

TAF: ZBAA 242120Z 2500/2524 32004MPS CAVOK TX06/2507Z TNM05/21Z BECMG 2512/2513 32009G16MPS

Observations et prévisions météorologiques de plus de 4000 aéroports (messages METAR et TAF).

Les stations disponibles sont représentées par des disques jaunes et rouges sur la carte.

Passer la souris dessus pour voir le nom de la station.

Cliquer dessus pour voir les observations et prévisions météorologiques.

Pour changer de carte: cliquez sur les boutons verts avec une croix noire pour zoomer, sur le bouton vert avec un tiret pour effectuer un zoom arrière, ou sur les flèches vertes pour les cartes adjacentes.


METAR-TAF: